createdAt,value
2022-12-18T00:01:07.196Z,17.95
2022-12-18T00:03:34.790Z,20.27
2022-12-18T00:06:01.685Z,19.83
2022-12-18T00:08:28.734Z,16.77
2022-12-18T00:10:55.466Z,17.42
2022-12-18T00:13:27.116Z,17.35
2022-12-18T00:15:56.564Z,18.50
2022-12-18T00:18:23.600Z,17.52
2022-12-18T00:20:50.323Z,16.75
2022-12-18T00:23:17.325Z,17.88
2022-12-18T00:25:44.046Z,17.33
2022-12-18T00:28:11.066Z,17.80
2022-12-18T00:30:37.760Z,16.98
2022-12-18T00:33:04.451Z,17.58
2022-12-18T00:35:31.182Z,16.75
2022-12-18T00:37:57.862Z,18.20
2022-12-18T00:40:24.537Z,18.25
2022-12-18T00:42:57.481Z,18.90
2022-12-18T00:45:30.904Z,17.75
2022-12-18T00:47:57.683Z,17.15
2022-12-18T00:50:25.038Z,16.05
2022-12-18T00:52:51.803Z,15.25
2022-12-18T00:55:18.642Z,16.83
2022-12-18T00:57:45.432Z,16.48
2022-12-18T01:00:13.948Z,18.17
2022-12-18T01:02:40.807Z,16.38
2022-12-18T01:05:08.325Z,17.40
2022-12-18T01:07:35.139Z,16.17
2022-12-18T01:10:01.848Z,16.60
2022-12-18T01:12:28.568Z,17.25
2022-12-18T01:14:55.273Z,15.57
2022-12-18T01:17:22.235Z,17.08
2022-12-18T01:19:48.928Z,16.75
2022-12-18T01:22:15.590Z,16.20
2022-12-18T01:24:42.278Z,16.15
2022-12-18T01:27:08.935Z,17.77
2022-12-18T01:29:35.834Z,16.52
2022-12-18T01:32:02.579Z,14.75
2022-12-18T01:34:29.432Z,17.48
2022-12-18T01:36:56.106Z,17.92
2022-12-18T01:39:22.907Z,15.13
2022-12-18T01:42:04.946Z,16.40
2022-12-18T01:45:05.739Z,16.90
2022-12-18T01:47:47.643Z,15.20
2022-12-18T01:50:19.423Z,15.35
2022-12-18T01:52:54.113Z,15.30
2022-12-18T01:55:23.473Z,14.77
2022-12-18T01:57:53.035Z,13.45
2022-12-18T02:00:20.679Z,16.40
2022-12-18T02:02:47.618Z,14.70
2022-12-18T02:05:19.766Z,16.65
2022-12-18T02:08:08.648Z,14.82
2022-12-18T02:11:09.601Z,14.75
2022-12-18T02:13:39.474Z,13.93
2022-12-18T02:16:11.998Z,16.27
2022-12-18T02:18:41.626Z,14.38
2022-12-18T02:21:31.387Z,14.40
2022-12-18T02:24:21.002Z,14.43
2022-12-18T02:26:58.567Z,12.65
2022-12-18T02:29:28.434Z,14.55
2022-12-18T02:31:57.527Z,15.43
2022-12-18T02:34:27.024Z,17.48
2022-12-18T02:36:53.715Z,13.85
2022-12-18T02:39:21.135Z,13.45
2022-12-18T02:41:48.201Z,12.75
2022-12-18T02:44:15.307Z,14.77
2022-12-18T02:46:44.653Z,12.10
2022-12-18T02:49:40.249Z,12.80
2022-12-18T02:52:43.822Z,12.90
2022-12-18T02:55:32.129Z,13.90
2022-12-18T02:58:04.493Z,12.30
2022-12-18T03:00:51.469Z,13.13
2022-12-18T03:03:38.369Z,12.85
2022-12-18T03:06:11.391Z,12.13
2022-12-18T03:08:40.248Z,14.32
2022-12-18T03:11:11.553Z,12.85
2022-12-18T03:13:53.526Z,13.02
2022-12-18T03:16:28.213Z,13.68
2022-12-18T03:19:09.389Z,12.25
2022-12-18T03:21:47.826Z,10.70
2022-12-18T03:24:14.497Z,11.60
2022-12-18T03:26:42.387Z,14.20
2022-12-18T03:29:10.905Z,13.13
2022-12-18T03:31:37.981Z,11.55
2022-12-18T03:34:06.112Z,12.43
2022-12-18T03:36:33.007Z,13.00
2022-12-18T03:38:59.728Z,12.93
2022-12-18T03:41:35.580Z,13.00
2022-12-18T03:44:20.643Z,12.48
2022-12-18T03:47:20.427Z,12.02
2022-12-18T03:49:57.709Z,12.07
2022-12-18T03:52:28.336Z,12.88
2022-12-18T03:54:55.357Z,11.55
2022-12-18T03:57:23.631Z,11.57
2022-12-18T03:59:52.127Z,12.77
2022-12-18T04:02:18.969Z,11.38
2022-12-18T04:04:45.737Z,11.63
2022-12-18T04:07:12.550Z,13.73
2022-12-18T04:09:39.626Z,12.07
2022-12-18T04:12:07.018Z,11.40
2022-12-18T04:14:36.559Z,12.02
2022-12-18T04:17:03.845Z,13.27
2022-12-18T04:19:30.552Z,14.15
2022-12-18T04:21:57.281Z,11.57
2022-12-18T04:24:24.022Z,14.05
2022-12-18T04:26:50.678Z,12.40
2022-12-18T04:29:17.401Z,12.30
2022-12-18T04:31:44.115Z,12.15
2022-12-18T04:34:10.800Z,12.23
2022-12-18T04:36:37.903Z,12.50
2022-12-18T04:39:04.610Z,12.23
2022-12-18T04:41:31.309Z,11.95
2022-12-18T04:43:57.996Z,12.55
2022-12-18T04:46:24.775Z,14.23
2022-12-18T04:48:51.476Z,13.07
2022-12-18T04:51:21.997Z,11.90
2022-12-18T04:53:52.814Z,14.43
2022-12-18T04:56:19.506Z,13.15
2022-12-18T04:58:46.247Z,13.40
2022-12-18T05:01:14.062Z,13.02
2022-12-18T05:03:41.226Z,13.10
2022-12-18T05:06:08.280Z,14.40
2022-12-18T05:08:35.074Z,12.95
2022-12-18T05:11:06.368Z,14.82
2022-12-18T05:13:36.820Z,14.13
2022-12-18T05:16:04.071Z,14.50
2022-12-18T05:18:31.823Z,12.07
2022-12-18T05:20:58.523Z,13.57
2022-12-18T05:23:25.246Z,13.15
2022-12-18T05:25:55.978Z,12.77
2022-12-18T05:28:23.255Z,12.82
2022-12-18T05:30:51.638Z,13.73
2022-12-18T05:33:19.406Z,13.43
2022-12-18T05:35:50.862Z,13.57
2022-12-18T05:38:17.500Z,13.45
2022-12-18T05:40:44.591Z,15.27
2022-12-18T05:43:14.249Z,14.05
2022-12-18T05:45:43.251Z,12.73
2022-12-18T05:48:13.738Z,14.95
2022-12-18T05:50:42.533Z,14.77
2022-12-18T05:53:09.233Z,14.32
2022-12-18T05:55:39.872Z,15.88
2022-12-18T05:58:07.146Z,15.63
2022-12-18T06:00:35.740Z,13.18
2022-12-18T06:03:02.905Z,13.50
2022-12-18T06:05:29.621Z,14.60
2022-12-18T06:07:56.317Z,12.55
2022-12-18T06:10:23.084Z,14.98
2022-12-18T06:12:49.770Z,13.93
2022-12-18T06:15:16.467Z,15.65
2022-12-18T06:17:43.677Z,14.65
2022-12-18T06:20:11.372Z,14.50
2022-12-18T06:22:38.140Z,13.68
2022-12-18T06:25:05.673Z,15.30
2022-12-18T06:27:34.491Z,12.65
2022-12-18T06:30:01.655Z,13.55
2022-12-18T06:32:28.397Z,13.75
2022-12-18T06:34:56.353Z,14.27
2022-12-18T06:37:26.954Z,12.95
2022-12-18T06:39:54.364Z,13.95
2022-12-18T06:42:24.865Z,12.98
2022-12-18T06:44:51.857Z,13.52
2022-12-18T06:47:19.228Z,13.18
2022-12-18T06:49:46.041Z,13.60
2022-12-18T06:52:12.754Z,13.70
2022-12-18T06:54:39.478Z,13.95
2022-12-18T06:57:06.156Z,14.90
2022-12-18T06:59:32.844Z,14.30
2022-12-18T07:01:59.645Z,13.02
2022-12-18T07:04:30.685Z,13.90
2022-12-18T07:06:57.443Z,14.05
2022-12-18T07:09:24.648Z,13.02
2022-12-18T07:11:51.857Z,12.88
2022-12-18T07:14:18.637Z,15.32
2022-12-18T07:16:45.481Z,13.48
2022-12-18T07:19:12.191Z,12.77
2022-12-18T07:21:39.002Z,13.35
2022-12-18T07:24:06.363Z,12.23
2022-12-18T07:26:33.051Z,13.52
2022-12-18T07:28:59.742Z,13.25
2022-12-18T07:31:26.617Z,13.52
2022-12-18T07:33:53.474Z,12.65
2022-12-18T07:36:20.432Z,13.20
2022-12-18T07:38:50.095Z,11.90
2022-12-18T07:41:16.892Z,12.27
2022-12-18T07:43:43.902Z,12.90
2022-12-18T07:46:13.505Z,13.88
2022-12-18T07:48:41.213Z,13.43
2022-12-18T07:51:08.029Z,13.63
2022-12-18T07:53:35.293Z,12.95
2022-12-18T07:58:50.855Z,14.00
2022-12-18T08:01:18.021Z,13.57
2022-12-18T08:03:45.328Z,13.68
2022-12-18T08:06:12.054Z,13.65
2022-12-18T08:08:38.896Z,14.02
2022-12-18T08:11:05.650Z,13.93
2022-12-18T08:13:32.398Z,14.63
2022-12-18T08:16:03.937Z,14.95
2022-12-18T08:18:30.735Z,13.20
2022-12-18T08:20:57.426Z,13.73
2022-12-18T08:23:27.550Z,14.07
2022-12-18T08:25:55.512Z,14.68
2022-12-18T08:28:22.248Z,12.77
2022-12-18T08:30:53.141Z,13.02
2022-12-18T08:33:19.937Z,13.52
2022-12-18T08:35:46.613Z,14.38
2022-12-18T08:38:13.316Z,14.80
2022-12-18T08:40:40.049Z,13.77
2022-12-18T08:43:25.309Z,14.10
2022-12-18T08:45:52.070Z,15.00
2022-12-18T08:48:22.141Z,14.27
2022-12-18T08:50:58.922Z,15.52
2022-12-18T08:53:25.710Z,12.43
2022-12-18T08:55:52.648Z,14.70
2022-12-18T08:58:19.687Z,13.77
2022-12-18T09:00:46.450Z,13.68
2022-12-18T09:03:16.818Z,13.90
2022-12-18T09:05:43.835Z,14.55
2022-12-18T09:08:10.519Z,14.48
2022-12-18T09:10:45.440Z,16.05
2022-12-18T09:13:12.828Z,14.07
2022-12-18T09:15:50.778Z,13.63
2022-12-18T09:18:18.182Z,13.85
2022-12-18T09:20:44.925Z,15.05
2022-12-18T09:23:12.038Z,13.93
2022-12-18T09:25:38.897Z,13.27
2022-12-18T09:28:18.635Z,15.07
2022-12-18T09:30:47.540Z,14.57
2022-12-18T09:33:14.707Z,14.07
2022-12-18T09:35:42.126Z,15.90
2022-12-18T09:38:09.833Z,13.35
2022-12-18T09:40:40.797Z,15.07
2022-12-18T09:43:08.306Z,14.50
2022-12-18T09:45:41.838Z,15.23
2022-12-18T09:48:24.396Z,13.73
2022-12-18T09:50:51.235Z,14.98
2022-12-18T09:53:23.686Z,12.85
2022-12-18T09:55:50.497Z,14.18
2022-12-18T09:58:33.122Z,14.45
2022-12-18T10:00:59.981Z,14.18
2022-12-18T10:03:27.545Z,14.00
2022-12-18T10:06:05.756Z,14.88
2022-12-18T10:09:01.627Z,12.95
2022-12-18T10:11:55.116Z,13.60
2022-12-18T10:14:43.679Z,13.10
2022-12-18T10:17:14.800Z,13.65
2022-12-18T10:19:50.115Z,11.50
2022-12-18T10:22:46.336Z,13.25
2022-12-18T10:25:21.233Z,13.02
2022-12-18T10:27:48.092Z,13.77
2022-12-18T10:30:20.893Z,12.82
2022-12-18T10:32:47.657Z,13.27
2022-12-18T10:35:25.359Z,11.32
2022-12-18T10:38:17.482Z,12.32
2022-12-18T10:40:53.179Z,13.40
2022-12-18T10:43:24.031Z,12.70
2022-12-18T10:46:09.201Z,11.73
2022-12-18T10:48:40.617Z,12.65
2022-12-18T10:51:12.939Z,12.23
2022-12-18T10:53:40.826Z,12.13
2022-12-18T10:56:07.844Z,11.82
2022-12-18T10:58:39.530Z,12.07
2022-12-18T11:01:13.868Z,12.10
2022-12-18T11:06:16.485Z,11.35
2022-12-18T11:08:44.664Z,10.95
2022-12-18T11:11:21.991Z,12.40
2022-12-18T11:14:06.885Z,12.82
2022-12-18T11:19:40.755Z,11.55
2022-12-18T11:22:27.540Z,12.25
2022-12-18T11:25:32.194Z,13.63
2022-12-18T11:28:02.498Z,12.15
2022-12-18T11:30:34.170Z,11.93
2022-12-18T11:33:06.694Z,16.92
2022-12-18T11:35:43.620Z,14.68
2022-12-18T11:38:26.552Z,13.40
2022-12-18T11:40:57.654Z,16.20
2022-12-18T11:43:42.879Z,15.20
2022-12-18T11:46:19.543Z,15.90
2022-12-18T11:48:51.443Z,16.10
2022-12-18T11:51:29.660Z,15.45
2022-12-18T11:53:56.338Z,16.38
2022-12-18T11:56:36.614Z,15.95
2022-12-18T11:59:28.886Z,17.05
2022-12-18T12:02:00.559Z,16.30
2022-12-18T12:04:56.318Z,15.98
2022-12-18T12:07:23.136Z,16.38
2022-12-18T12:10:09.215Z,15.80
2022-12-18T12:12:48.878Z,14.95
2022-12-18T12:15:47.266Z,16.02
2022-12-18T12:18:42.554Z,14.98
2022-12-18T12:21:35.579Z,15.48
2022-12-18T12:24:13.622Z,14.60
2022-12-18T12:26:57.782Z,13.50
2022-12-18T12:29:43.106Z,13.00
2022-12-18T12:32:12.666Z,12.75
2022-12-18T12:34:45.635Z,13.18
2022-12-18T12:37:45.759Z,14.13
2022-12-18T12:40:49.087Z,14.05
2022-12-18T12:43:25.649Z,14.13
2022-12-18T12:45:54.535Z,14.77
2022-12-18T12:48:27.523Z,14.63
2022-12-18T12:50:54.747Z,14.05
2022-12-18T12:53:35.648Z,13.65
2022-12-18T12:56:03.290Z,12.80
2022-12-18T12:58:32.239Z,14.75
2022-12-18T13:01:34.350Z,14.32
2022-12-18T13:04:10.418Z,13.52
2022-12-18T13:06:57.604Z,13.93
2022-12-18T13:09:24.557Z,14.48
2022-12-18T13:12:09.843Z,13.63
2022-12-18T13:14:38.832Z,14.13
2022-12-18T13:17:21.533Z,14.35
2022-12-18T13:19:52.624Z,12.82
2022-12-18T13:22:24.089Z,13.23
2022-12-18T13:24:51.098Z,12.98
2022-12-18T13:27:44.012Z,11.82
2022-12-18T13:30:32.394Z,13.43
2022-12-18T13:33:19.104Z,10.95
2022-12-18T13:35:49.009Z,11.02
2022-12-18T13:38:42.480Z,13.23
2022-12-18T13:41:12.015Z,11.30
2022-12-18T13:44:09.262Z,11.43
2022-12-18T13:46:43.694Z,11.30
2022-12-18T13:49:13.250Z,12.18
2022-12-18T13:51:50.442Z,10.88
2022-12-18T13:54:40.766Z,10.68
2022-12-18T13:57:39.419Z,10.50
2022-12-18T14:00:26.263Z,9.25
2022-12-18T14:02:53.191Z,9.07
2022-12-18T14:05:34.451Z,10.10
2022-12-18T14:08:07.559Z,8.68
2022-12-18T14:10:48.627Z,10.07
2022-12-18T14:13:29.930Z,10.35
2022-12-18T14:15:56.739Z,8.90
2022-12-18T14:18:47.113Z,11.05
2022-12-18T14:21:28.252Z,10.02
2022-12-18T14:24:13.710Z,9.88
2022-12-18T14:26:40.820Z,8.98
2022-12-18T14:29:27.685Z,10.05
2022-12-18T14:32:20.576Z,9.32
2022-12-18T14:34:52.134Z,10.43
2022-12-18T14:37:22.304Z,8.25
2022-12-18T14:39:57.606Z,9.02
2022-12-18T14:42:28.799Z,8.98
2022-12-18T14:45:39.125Z,8.60
2022-12-18T14:48:41.996Z,8.25
2022-12-18T14:51:17.941Z,7.28
2022-12-18T14:53:50.707Z,8.20
2022-12-18T14:56:28.596Z,8.70
2022-12-18T14:58:59.735Z,10.07
2022-12-18T15:01:27.701Z,7.63
2022-12-18T15:03:55.345Z,8.00
2022-12-18T15:06:36.051Z,8.38
2022-12-18T15:09:05.637Z,8.60
2022-12-18T15:11:37.400Z,6.85
2022-12-18T15:14:32.126Z,7.90
2022-12-18T15:19:40.587Z,6.65
2022-12-18T15:22:21.618Z,7.00
2022-12-18T15:24:48.812Z,6.82
2022-12-18T15:27:23.238Z,6.85
2022-12-18T15:30:12.473Z,7.20
2022-12-18T15:32:43.904Z,7.15
2022-12-18T15:35:19.328Z,7.03
2022-12-18T15:37:46.180Z,8.93
2022-12-18T15:40:14.988Z,6.78
2022-12-18T15:43:02.997Z,7.13
2022-12-18T15:45:29.877Z,7.63
2022-12-18T15:47:56.646Z,7.78
2022-12-18T15:50:23.534Z,7.03
2022-12-18T15:52:51.102Z,7.00
2022-12-18T15:55:40.886Z,8.25
2022-12-18T15:58:08.951Z,7.25
2022-12-18T16:00:36.373Z,7.55
2022-12-18T16:03:03.635Z,7.82
2022-12-18T16:05:30.531Z,6.32
2022-12-18T16:07:57.364Z,7.72
2022-12-18T16:10:24.725Z,5.60
2022-12-18T16:12:51.452Z,6.13
2022-12-18T16:15:22.622Z,6.57
2022-12-18T16:17:50.929Z,6.30
2022-12-18T16:20:19.281Z,7.18
2022-12-18T16:22:46.912Z,6.05
2022-12-18T16:25:27.519Z,4.38
2022-12-18T16:27:56.011Z,4.78
2022-12-18T16:30:24.545Z,4.10
2022-12-18T16:32:52.689Z,4.05
2022-12-18T16:35:19.454Z,3.83
2022-12-18T16:37:46.270Z,4.30
2022-12-18T16:40:15.118Z,3.97
2022-12-18T16:42:42.485Z,3.60
2022-12-18T16:45:10.203Z,3.05
2022-12-18T16:47:37.000Z,3.45
2022-12-18T16:50:04.583Z,2.83
2022-12-18T16:52:31.345Z,4.00
2022-12-18T16:54:58.075Z,2.78
2022-12-18T16:57:25.364Z,2.63
2022-12-18T16:59:52.482Z,2.85
2022-12-18T17:02:23.896Z,3.75
2022-12-18T17:04:53.114Z,3.65
2022-12-18T17:07:19.826Z,5.53
2022-12-18T17:09:46.554Z,2.70
2022-12-18T17:12:13.303Z,2.83
2022-12-18T17:14:40.110Z,3.75
2022-12-18T17:17:23.723Z,2.67
2022-12-18T17:19:51.503Z,3.15
2022-12-18T17:22:18.240Z,3.10
2022-12-18T17:24:44.950Z,2.85
2022-12-18T17:27:11.728Z,3.53
2022-12-18T17:29:43.892Z,3.47
2022-12-18T17:32:13.418Z,3.17
2022-12-18T17:34:40.650Z,4.32
2022-12-18T17:37:07.485Z,3.30
2022-12-18T17:39:34.431Z,2.90
2022-12-18T17:42:01.301Z,3.53
2022-12-18T17:44:28.088Z,3.45
2022-12-18T17:46:54.988Z,3.97
2022-12-18T17:49:21.772Z,3.20
2022-12-18T17:51:48.766Z,3.40
2022-12-18T17:54:15.500Z,3.10
2022-12-18T17:56:42.271Z,3.95
2022-12-18T17:59:09.532Z,3.25
2022-12-18T18:01:41.143Z,2.80
2022-12-18T18:04:11.184Z,2.35
2022-12-18T18:06:39.003Z,2.55
2022-12-18T18:09:06.279Z,2.83
2022-12-18T18:11:54.191Z,3.10
2022-12-18T18:14:22.720Z,2.30
2022-12-18T18:16:50.443Z,2.88
2022-12-18T18:19:19.638Z,2.25
2022-12-18T18:21:47.282Z,2.78
2022-12-18T18:24:15.250Z,2.85
2022-12-18T18:26:42.093Z,2.75
2022-12-18T18:29:17.527Z,3.25
2022-12-18T18:31:44.664Z,2.63
2022-12-18T18:34:16.140Z,3.13
2022-12-18T18:36:43.189Z,2.85
2022-12-18T18:39:10.455Z,2.42
2022-12-18T18:41:37.248Z,2.97
2022-12-18T18:44:04.302Z,2.65
2022-12-18T18:46:31.183Z,4.43
2022-12-18T18:48:57.888Z,2.65
2022-12-18T18:51:24.630Z,2.60
2022-12-18T18:53:52.156Z,2.88
2022-12-18T18:59:07.176Z,3.05
2022-12-18T19:01:34.039Z,2.50
2022-12-18T19:04:00.925Z,2.03
2022-12-18T19:06:27.964Z,2.80
2022-12-18T19:08:55.385Z,3.15
2022-12-18T19:11:41.222Z,2.53
2022-12-18T19:14:11.464Z,2.80
2022-12-18T19:16:38.385Z,2.85
2022-12-18T19:19:05.373Z,2.60
2022-12-18T19:21:34.597Z,2.17
2022-12-18T19:24:02.402Z,2.42
2022-12-18T19:26:29.297Z,2.80
2022-12-18T19:29:02.232Z,2.90
2022-12-18T19:31:34.870Z,2.90
2022-12-18T19:34:02.943Z,2.72
2022-12-18T19:36:30.087Z,2.30
2022-12-18T19:38:58.493Z,2.45
2022-12-18T19:41:25.631Z,2.40
2022-12-18T19:43:54.335Z,2.15
2022-12-18T19:46:22.297Z,2.72
2022-12-18T19:48:49.345Z,2.50
2022-12-18T19:51:18.056Z,2.50
2022-12-18T19:53:45.409Z,2.85
2022-12-18T19:56:17.171Z,2.75
2022-12-18T19:58:46.928Z,2.50
2022-12-18T20:01:16.444Z,2.80
2022-12-18T20:03:44.588Z,2.50
2022-12-18T20:06:26.711Z,3.10
2022-12-18T20:08:55.566Z,3.22
2022-12-18T20:11:26.881Z,2.80
2022-12-18T20:14:02.233Z,2.47
2022-12-18T20:16:29.264Z,2.90
2022-12-18T20:18:56.887Z,2.53
2022-12-18T20:21:23.837Z,2.67
2022-12-18T20:23:55.643Z,3.10
2022-12-18T20:26:25.402Z,3.55
2022-12-18T20:28:52.586Z,2.55
2022-12-18T20:31:22.866Z,2.28
2022-12-18T20:33:59.612Z,2.00
2022-12-18T20:36:28.293Z,3.15
2022-12-18T20:39:00.545Z,2.53
2022-12-18T20:41:32.787Z,3.05
2022-12-18T20:44:10.935Z,2.80
2022-12-18T20:46:50.358Z,2.42
2022-12-18T20:49:17.183Z,2.80
2022-12-18T20:51:43.844Z,2.25
2022-12-18T20:54:12.036Z,2.67
2022-12-18T20:56:41.949Z,2.50
2022-12-18T20:59:12.337Z,2.40
2022-12-18T21:01:41.523Z,2.10
2022-12-18T21:04:18.338Z,2.15
2022-12-18T21:06:51.336Z,3.15
2022-12-18T21:09:20.522Z,2.10
2022-12-18T21:12:05.997Z,2.10
2022-12-18T21:14:33.134Z,1.80
2022-12-18T21:17:03.310Z,3.25
2022-12-18T21:19:30.515Z,1.80
2022-12-18T21:21:57.571Z,1.88
2022-12-18T21:24:24.922Z,1.98
2022-12-18T21:26:59.722Z,1.50
2022-12-18T21:29:26.785Z,1.85
2022-12-18T21:32:03.022Z,1.30
2022-12-18T21:34:30.587Z,1.90
2022-12-18T21:36:58.463Z,1.83
2022-12-18T21:39:25.942Z,1.52
2022-12-18T21:42:12.555Z,1.65
2022-12-18T21:44:42.183Z,1.48
2022-12-18T21:47:21.560Z,2.03
2022-12-18T21:49:53.031Z,2.38
2022-12-18T21:52:21.633Z,1.30
2022-12-18T21:55:00.723Z,1.50
2022-12-18T21:57:34.828Z,1.08
2022-12-18T22:00:05.033Z,1.30
2022-12-18T22:02:32.754Z,1.50
2022-12-18T22:04:59.839Z,1.17
2022-12-18T22:07:28.958Z,1.13
2022-12-18T22:09:55.674Z,1.38
2022-12-18T22:12:44.504Z,1.25
2022-12-18T22:15:14.728Z,0.90
2022-12-18T22:17:48.947Z,1.63
2022-12-18T22:20:16.021Z,1.30
2022-12-18T22:22:45.582Z,1.08
2022-12-18T22:25:12.370Z,2.53
2022-12-18T22:27:39.036Z,1.58
2022-12-18T22:30:06.545Z,1.05
2022-12-18T22:32:34.011Z,1.10
2022-12-18T22:35:06.812Z,0.80
2022-12-18T22:37:36.106Z,2.78
2022-12-18T22:40:06.107Z,0.98
2022-12-18T22:42:34.126Z,0.80
2022-12-18T22:45:00.839Z,0.70
2022-12-18T22:47:30.098Z,1.40
2022-12-18T22:49:57.525Z,1.10
2022-12-18T22:52:24.994Z,0.90
2022-12-18T22:54:53.158Z,0.80
2022-12-18T22:57:21.585Z,1.13
2022-12-18T22:59:49.159Z,0.90
2022-12-18T23:02:17.361Z,1.23
2022-12-18T23:04:44.867Z,1.10
2022-12-18T23:07:11.687Z,1.52
2022-12-18T23:09:39.530Z,1.70
2022-12-18T23:12:06.588Z,1.38
2022-12-18T23:14:33.336Z,1.27
2022-12-18T23:16:59.990Z,1.60
2022-12-18T23:19:26.731Z,1.35
2022-12-18T23:21:56.636Z,1.40
2022-12-18T23:24:28.406Z,1.38
2022-12-18T23:26:58.065Z,1.85
2022-12-18T23:29:24.743Z,1.00
2022-12-18T23:31:51.510Z,1.42
2022-12-18T23:34:18.234Z,1.10
2022-12-18T23:36:46.835Z,1.10
2022-12-18T23:39:17.441Z,1.20
2022-12-18T23:41:56.674Z,1.20
2022-12-18T23:44:23.575Z,1.25
2022-12-18T23:46:50.411Z,1.10
2022-12-18T23:49:17.174Z,0.82
2022-12-18T23:51:43.859Z,0.70
2022-12-18T23:54:10.890Z,0.95
2022-12-18T23:56:37.748Z,1.13
2022-12-18T23:59:04.554Z,0.93
